Weather at Orchid Beach Airport

Public forecast

Using degrees Celsius for public forecast. Weather courtesy of forecast.io.

Closest aviation weather report (METAR) to Orchid Beach Airport

Closest report is Sunshine Coast Airport, 98.9 nm (183.2 km) S.

2024/04/22 22:30 (retrieved 39 minutes ago)

YBSU 222230Z AUTO 19010KT 9999 // SCT037 SCT044 SCT055 21/17 Q1022

Closest aviation forecast (TAF) to Orchid Beach Airport

Closest forecast is Sunshine Coast Airport, 98.9 nm (183.2 km) S.

2024/04/22 18:00 (retrieved 5 hours ago)

TAF YBSU 221707Z 2218/2318 20008KT 9999 -SHRA FEW020 SCT035 FM230000 13014KT 9999 -SHRA SCT030 FM231300 20008KT 9999 -SHRA SCT025 INTER 2218/2302 14015G25KT 4000 SHRA BKN015 INTER 2302/2309 6000 SHRA SCT015